sensor_id;sensor_type;location;lat;lon;timestamp;temperature;humidity
31575;DHT22;18182;1.328;103.810;2023-04-19T00:00:56;30.40;99.90
31575;DHT22;18182;1.328;103.810;2023-04-19T00:03:22;30.40;99.90
31575;DHT22;18182;1.328;103.810;2023-04-19T00:05:50;30.50;99.90
31575;DHT22;18182;1.328;103.810;2023-04-19T00:08:18;30.50;99.90
31575;DHT22;18182;1.328;103.810;2023-04-19T00:10:45;30.60;99.90
31575;DHT22;18182;1.328;103.810;2023-04-19T00:13:11;30.60;99.90
31575;DHT22;18182;1.328;103.810;2023-04-19T00:15:37;30.60;99.90
31575;DHT22;18182;1.328;103.810;2023-04-19T00:18:03;30.70;99.90
31575;DHT22;18182;1.328;103.810;2023-04-19T00:20:29;30.70;99.90
31575;DHT22;18182;1.328;103.810;2023-04-19T00:22:55;30.70;99.90
31575;DHT22;18182;1.328;103.810;2023-04-19T00:25:23;30.80;99.90
31575;DHT22;18182;1.328;103.810;2023-04-19T00:27:49;30.90;99.90
31575;DHT22;18182;1.328;103.810;2023-04-19T00:30:16;30.90;99.90
31575;DHT22;18182;1.328;103.810;2023-04-19T00:32:42;31.00;99.90
31575;DHT22;18182;1.328;103.810;2023-04-19T00:35:08;31.00;99.90
31575;DHT22;18182;1.328;103.810;2023-04-19T00:37:34;31.10;99.90
31575;DHT22;18182;1.328;103.810;2023-04-19T00:40:00;31.10;99.90
31575;DHT22;18182;1.328;103.810;2023-04-19T00:42:27;31.10;99.90
31575;DHT22;18182;1.328;103.810;2023-04-19T00:44:53;31.10;99.90
31575;DHT22;18182;1.328;103.810;2023-04-19T00:47:19;31.00;99.90
31575;DHT22;18182;1.328;103.810;2023-04-19T00:49:46;31.00;99.90
31575;DHT22;18182;1.328;103.810;2023-04-19T00:52:12;31.00;99.90
31575;DHT22;18182;1.328;103.810;2023-04-19T00:54:38;30.90;99.90
31575;DHT22;18182;1.328;103.810;2023-04-19T00:57:05;31.00;99.90
31575;DHT22;18182;1.328;103.810;2023-04-19T00:59:32;31.00;99.90
31575;DHT22;18182;1.328;103.810;2023-04-19T01:01:59;31.00;99.90
31575;DHT22;18182;1.328;103.810;2023-04-19T01:04:25;31.10;99.90
31575;DHT22;18182;1.328;103.810;2023-04-19T01:06:51;31.10;99.90
31575;DHT22;18182;1.328;103.810;2023-04-19T01:09:18;31.10;99.90
31575;DHT22;18182;1.328;103.810;2023-04-19T01:11:44;31.10;99.90
31575;DHT22;18182;1.328;103.810;2023-04-19T01:14:11;31.20;99.90
31575;DHT22;18182;1.328;103.810;2023-04-19T01:16:37;31.10;99.90
31575;DHT22;18182;1.328;103.810;2023-04-19T01:19:03;31.20;99.90
31575;DHT22;18182;1.328;103.810;2023-04-19T01:21:29;31.20;99.90
31575;DHT22;18182;1.328;103.810;2023-04-19T01:23:57;31.10;99.90
31575;DHT22;18182;1.328;103.810;2023-04-19T01:26:23;31.20;99.90
31575;DHT22;18182;1.328;103.810;2023-04-19T01:28:49;31.10;99.90
31575;DHT22;18182;1.328;103.810;2023-04-19T01:31:15;31.20;99.90
31575;DHT22;18182;1.328;103.810;2023-04-19T01:33:41;31.20;99.90
31575;DHT22;18182;1.328;103.810;2023-04-19T01:36:08;31.20;99.90
31575;DHT22;18182;1.328;103.810;2023-04-19T01:38:34;31.20;99.90
31575;DHT22;18182;1.328;103.810;2023-04-19T01:41:00;31.10;99.90
31575;DHT22;18182;1.328;103.810;2023-04-19T01:43:26;31.10;99.90
31575;DHT22;18182;1.328;103.810;2023-04-19T01:45:53;31.10;99.90
31575;DHT22;18182;1.328;103.810;2023-04-19T01:48:19;31.00;99.90
31575;DHT22;18182;1.328;103.810;2023-04-19T01:50:45;31.00;99.90
31575;DHT22;18182;1.328;103.810;2023-04-19T01:53:11;31.00;99.90
31575;DHT22;18182;1.328;103.810;2023-04-19T01:55:37;30.90;99.90
31575;DHT22;18182;1.328;103.810;2023-04-19T01:58:03;31.00;99.90
31575;DHT22;18182;1.328;103.810;2023-04-19T02:00:29;30.90;99.90
31575;DHT22;18182;1.328;103.810;2023-04-19T02:02:55;31.00;99.90
31575;DHT22;18182;1.328;103.810;2023-04-19T02:05:21;30.90;99.90
31575;DHT22;18182;1.328;103.810;2023-04-19T02:07:48;30.90;99.90
31575;DHT22;18182;1.328;103.810;2023-04-19T02:10:14;30.90;99.90
31575;DHT22;18182;1.328;103.810;2023-04-19T02:12:40;30.90;99.90
31575;DHT22;18182;1.328;103.810;2023-04-19T02:15:07;30.90;99.90
31575;DHT22;18182;1.328;103.810;2023-04-19T02:17:33;30.80;99.90
31575;DHT22;18182;1.328;103.810;2023-04-19T02:20:00;30.80;99.90
31575;DHT22;18182;1.328;103.810;2023-04-19T02:22:26;30.80;99.90
31575;DHT22;18182;1.328;103.810;2023-04-19T02:24:52;30.70;99.90
31575;DHT22;18182;1.328;103.810;2023-04-19T02:27:18;30.70;99.90
31575;DHT22;18182;1.328;103.810;2023-04-19T02:29:45;30.80;99.90
31575;DHT22;18182;1.328;103.810;2023-04-19T02:32:11;30.80;99.90
31575;DHT22;18182;1.328;103.810;2023-04-19T02:34:37;30.90;99.90
31575;DHT22;18182;1.328;103.810;2023-04-19T02:37:04;30.90;99.90
31575;DHT22;18182;1.328;103.810;2023-04-19T02:39:30;31.00;99.90
31575;DHT22;18182;1.328;103.810;2023-04-19T02:41:56;31.00;99.90
31575;DHT22;18182;1.328;103.810;2023-04-19T02:44:22;31.00;99.90
31575;DHT22;18182;1.328;103.810;2023-04-19T02:46:52;30.90;99.90
31575;DHT22;18182;1.328;103.810;2023-04-19T02:49:18;30.90;99.90
31575;DHT22;18182;1.328;103.810;2023-04-19T02:51:45;30.80;99.90
31575;DHT22;18182;1.328;103.810;2023-04-19T02:54:11;30.70;99.90
31575;DHT22;18182;1.328;103.810;2023-04-19T02:56:37;30.70;99.90
31575;DHT22;18182;1.328;103.810;2023-04-19T02:59:04;30.60;99.90
31575;DHT22;18182;1.328;103.810;2023-04-19T03:01:30;30.60;99.90
31575;DHT22;18182;1.328;103.810;2023-04-19T03:03:56;30.50;99.90
31575;DHT22;18182;1.328;103.810;2023-04-19T03:06:22;30.50;99.90
31575;DHT22;18182;1.328;103.810;2023-04-19T03:08:48;30.50;99.90
31575;DHT22;18182;1.328;103.810;2023-04-19T03:11:16;30.50;99.90
31575;DHT22;18182;1.328;103.810;2023-04-19T03:13:43;30.50;99.90
31575;DHT22;18182;1.328;103.810;2023-04-19T03:16:09;30.50;99.90
31575;DHT22;18182;1.328;103.810;2023-04-19T03:18:35;30.50;99.90
31575;DHT22;18182;1.328;103.810;2023-04-19T03:21:02;30.60;99.90
31575;DHT22;18182;1.328;103.810;2023-04-19T03:23:28;30.70;99.90
31575;DHT22;18182;1.328;103.810;2023-04-19T03:25:54;30.80;99.90
31575;DHT22;18182;1.328;103.810;2023-04-19T03:28:21;30.90;99.90
31575;DHT22;18182;1.328;103.810;2023-04-19T03:30:47;30.90;99.90
31575;DHT22;18182;1.328;103.810;2023-04-19T03:33:13;31.10;99.90
31575;DHT22;18182;1.328;103.810;2023-04-19T03:35:40;31.20;99.90
31575;DHT22;18182;1.328;103.810;2023-04-19T03:38:06;31.20;99.90
31575;DHT22;18182;1.328;103.810;2023-04-19T03:40:32;31.30;99.90
31575;DHT22;18182;1.328;103.810;2023-04-19T03:42:59;31.30;99.90
31575;DHT22;18182;1.328;103.810;2023-04-19T03:45:25;31.40;99.90
31575;DHT22;18182;1.328;103.810;2023-04-19T03:47:51;31.50;99.90
31575;DHT22;18182;1.328;103.810;2023-04-19T03:50:17;31.50;99.90
31575;DHT22;18182;1.328;103.810;2023-04-19T03:52:44;31.50;99.90
31575;DHT22;18182;1.328;103.810;2023-04-19T03:55:10;31.50;99.90
31575;DHT22;18182;1.328;103.810;2023-04-19T03:57:37;31.50;99.90
31575;DHT22;18182;1.328;103.810;2023-04-19T04:00:03;31.50;99.90
31575;DHT22;18182;1.328;103.810;2023-04-19T04:02:35;31.40;99.90
31575;DHT22;18182;1.328;103.810;2023-04-19T04:05:01;31.40;99.90
31575;DHT22;18182;1.328;103.810;2023-04-19T04:07:27;31.40;99.90
31575;DHT22;18182;1.328;103.810;2023-04-19T04:09:53;31.40;99.90
31575;DHT22;18182;1.328;103.810;2023-04-19T04:12:20;31.40;99.90
31575;DHT22;18182;1.328;103.810;2023-04-19T04:14:46;31.40;99.90
31575;DHT22;18182;1.328;103.810;2023-04-19T04:17:12;31.40;99.90
31575;DHT22;18182;1.328;103.810;2023-04-19T04:19:38;31.30;99.90
31575;DHT22;18182;1.328;103.810;2023-04-19T04:22:05;31.20;99.90
31575;DHT22;18182;1.328;103.810;2023-04-19T04:24:40;31.30;99.90
31575;DHT22;18182;1.328;103.810;2023-04-19T04:27:07;31.30;99.90
31575;DHT22;18182;1.328;103.810;2023-04-19T04:29:36;31.40;99.90
31575;DHT22;18182;1.328;103.810;2023-04-19T04:32:03;31.40;99.90
31575;DHT22;18182;1.328;103.810;2023-04-19T04:34:29;31.50;99.90
31575;DHT22;18182;1.328;103.810;2023-04-19T04:36:55;31.60;99.90
31575;DHT22;18182;1.328;103.810;2023-04-19T04:39:22;31.60;99.90
31575;DHT22;18182;1.328;103.810;2023-04-19T04:41:48;31.60;99.90
31575;DHT22;18182;1.328;103.810;2023-04-19T04:44:16;31.60;99.90
31575;DHT22;18182;1.328;103.810;2023-04-19T04:46:42;31.50;99.90
31575;DHT22;18182;1.328;103.810;2023-04-19T04:49:08;31.60;99.90
31575;DHT22;18182;1.328;103.810;2023-04-19T04:51:34;31.70;99.90
31575;DHT22;18182;1.328;103.810;2023-04-19T04:54:01;31.70;99.90
31575;DHT22;18182;1.328;103.810;2023-04-19T04:56:29;31.80;99.90
31575;DHT22;18182;1.328;103.810;2023-04-19T04:58:55;31.70;99.90
31575;DHT22;18182;1.328;103.810;2023-04-19T05:01:23;31.80;99.90
31575;DHT22;18182;1.328;103.810;2023-04-19T05:03:49;31.90;99.90
31575;DHT22;18182;1.328;103.810;2023-04-19T05:06:16;32.00;99.90
31575;DHT22;18182;1.328;103.810;2023-04-19T05:08:43;32.20;99.90
31575;DHT22;18182;1.328;103.810;2023-04-19T05:11:09;32.30;99.90
31575;DHT22;18182;1.328;103.810;2023-04-19T05:13:35;32.40;99.90
31575;DHT22;18182;1.328;103.810;2023-04-19T05:16:01;32.50;99.90
31575;DHT22;18182;1.328;103.810;2023-04-19T05:18:27;32.50;99.90
31575;DHT22;18182;1.328;103.810;2023-04-19T05:20:53;32.50;99.90
31575;DHT22;18182;1.328;103.810;2023-04-19T05:23:19;32.50;99.90
31575;DHT22;18182;1.328;103.810;2023-04-19T05:25:45;32.50;99.90
31575;DHT22;18182;1.328;103.810;2023-04-19T05:28:12;32.60;99.90
31575;DHT22;18182;1.328;103.810;2023-04-19T05:30:38;32.50;99.90
31575;DHT22;18182;1.328;103.810;2023-04-19T05:33:04;32.60;99.90
31575;DHT22;18182;1.328;103.810;2023-04-19T05:35:30;32.60;99.90
31575;DHT22;18182;1.328;103.810;2023-04-19T05:37:56;32.60;99.90
31575;DHT22;18182;1.328;103.810;2023-04-19T05:40:23;32.60;99.90
31575;DHT22;18182;1.328;103.810;2023-04-19T05:42:49;32.60;99.90
31575;DHT22;18182;1.328;103.810;2023-04-19T05:45:15;32.50;99.90
31575;DHT22;18182;1.328;103.810;2023-04-19T05:47:43;32.50;99.90
31575;DHT22;18182;1.328;103.810;2023-04-19T05:50:09;32.60;99.90
31575;DHT22;18182;1.328;103.810;2023-04-19T05:52:35;32.60;99.90
31575;DHT22;18182;1.328;103.810;2023-04-19T05:55:02;32.60;99.90
31575;DHT22;18182;1.328;103.810;2023-04-19T05:57:29;32.60;99.90
31575;DHT22;18182;1.328;103.810;2023-04-19T05:59:55;32.60;99.90
31575;DHT22;18182;1.328;103.810;2023-04-19T06:02:21;32.60;99.90
31575;DHT22;18182;1.328;103.810;2023-04-19T06:04:47;32.60;99.90
31575;DHT22;18182;1.328;103.810;2023-04-19T06:07:13;32.50;99.90
31575;DHT22;18182;1.328;103.810;2023-04-19T06:09:40;32.60;99.90
31575;DHT22;18182;1.328;103.810;2023-04-19T06:12:06;32.50;99.90
31575;DHT22;18182;1.328;103.810;2023-04-19T06:14:32;32.50;99.90
31575;DHT22;18182;1.328;103.810;2023-04-19T06:16:58;32.60;99.90
31575;DHT22;18182;1.328;103.810;2023-04-19T06:19:24;32.70;99.90
31575;DHT22;18182;1.328;103.810;2023-04-19T06:21:50;32.70;99.90
31575;DHT22;18182;1.328;103.810;2023-04-19T06:24:16;32.70;99.90
31575;DHT22;18182;1.328;103.810;2023-04-19T06:26:42;32.70;99.90
31575;DHT22;18182;1.328;103.810;2023-04-19T06:29:08;32.60;99.90
31575;DHT22;18182;1.328;103.810;2023-04-19T06:31:35;32.60;99.90
31575;DHT22;18182;1.328;103.810;2023-04-19T06:34:01;32.50;99.90
31575;DHT22;18182;1.328;103.810;2023-04-19T06:36:27;32.50;99.90
31575;DHT22;18182;1.328;103.810;2023-04-19T06:38:53;32.50;99.90
31575;DHT22;18182;1.328;103.810;2023-04-19T06:41:20;32.60;99.90
31575;DHT22;18182;1.328;103.810;2023-04-19T06:43:47;32.60;99.90
31575;DHT22;18182;1.328;103.810;2023-04-19T06:46:13;32.60;99.90
31575;DHT22;18182;1.328;103.810;2023-04-19T06:48:40;32.70;99.90
31575;DHT22;18182;1.328;103.810;2023-04-19T06:51:06;32.70;99.90
31575;DHT22;18182;1.328;103.810;2023-04-19T06:53:32;32.60;99.90
31575;DHT22;18182;1.328;103.810;2023-04-19T06:56:00;32.30;99.90
31575;DHT22;18182;1.328;103.810;2023-04-19T06:58:26;32.10;99.90
31575;DHT22;18182;1.328;103.810;2023-04-19T07:00:53;32.00;99.90
31575;DHT22;18182;1.328;103.810;2023-04-19T07:03:19;32.00;99.90
31575;DHT22;18182;1.328;103.810;2023-04-19T07:05:45;31.90;99.90
31575;DHT22;18182;1.328;103.810;2023-04-19T07:08:11;31.70;99.90
31575;DHT22;18182;1.328;103.810;2023-04-19T07:10:37;31.70;99.90
31575;DHT22;18182;1.328;103.810;2023-04-19T07:13:04;31.50;99.90
31575;DHT22;18182;1.328;103.810;2023-04-19T07:15:30;31.50;99.90
31575;DHT22;18182;1.328;103.810;2023-04-19T07:17:56;31.50;99.90
31575;DHT22;18182;1.328;103.810;2023-04-19T07:20:22;31.50;99.90
31575;DHT22;18182;1.328;103.810;2023-04-19T07:22:48;31.50;99.90
31575;DHT22;18182;1.328;103.810;2023-04-19T07:25:14;31.50;99.90
31575;DHT22;18182;1.328;103.810;2023-04-19T07:27:41;31.60;99.90
31575;DHT22;18182;1.328;103.810;2023-04-19T07:30:07;31.60;99.90
31575;DHT22;18182;1.328;103.810;2023-04-19T07:32:33;31.60;99.90
31575;DHT22;18182;1.328;103.810;2023-04-19T07:35:00;31.60;99.90
31575;DHT22;18182;1.328;103.810;2023-04-19T07:37:26;31.50;99.90
31575;DHT22;18182;1.328;103.810;2023-04-19T07:39:53;31.50;99.90
31575;DHT22;18182;1.328;103.810;2023-04-19T07:42:19;31.50;99.90
31575;DHT22;18182;1.328;103.810;2023-04-19T07:44:45;31.40;99.90
31575;DHT22;18182;1.328;103.810;2023-04-19T07:47:11;31.40;99.90
31575;DHT22;18182;1.328;103.810;2023-04-19T07:49:38;31.40;99.90
31575;DHT22;18182;1.328;103.810;2023-04-19T07:52:06;31.50;99.90
31575;DHT22;18182;1.328;103.810;2023-04-19T07:54:32;31.50;99.90
31575;DHT22;18182;1.328;103.810;2023-04-19T07:56:59;31.50;99.90
31575;DHT22;18182;1.328;103.810;2023-04-19T07:59:25;31.50;99.90
31575;DHT22;18182;1.328;103.810;2023-04-19T08:01:51;31.50;99.90
31575;DHT22;18182;1.328;103.810;2023-04-19T08:04:17;31.60;99.90
31575;DHT22;18182;1.328;103.810;2023-04-19T08:06:44;31.60;99.90
31575;DHT22;18182;1.328;103.810;2023-04-19T08:09:10;31.60;99.90
31575;DHT22;18182;1.328;103.810;2023-04-19T08:11:36;31.70;99.90
31575;DHT22;18182;1.328;103.810;2023-04-19T08:14:03;31.70;99.90
31575;DHT22;18182;1.328;103.810;2023-04-19T08:16:29;31.70;99.90
31575;DHT22;18182;1.328;103.810;2023-04-19T08:18:55;31.60;99.90
31575;DHT22;18182;1.328;103.810;2023-04-19T08:21:21;31.50;99.90
31575;DHT22;18182;1.328;103.810;2023-04-19T08:23:47;31.50;99.90
31575;DHT22;18182;1.328;103.810;2023-04-19T08:26:13;31.50;99.90
31575;DHT22;18182;1.328;103.810;2023-04-19T08:28:39;31.50;99.90
31575;DHT22;18182;1.328;103.810;2023-04-19T08:31:06;31.50;99.90
31575;DHT22;18182;1.328;103.810;2023-04-19T08:33:35;31.50;99.90
31575;DHT22;18182;1.328;103.810;2023-04-19T08:36:01;31.50;99.90
31575;DHT22;18182;1.328;103.810;2023-04-19T08:38:27;31.50;99.90
31575;DHT22;18182;1.328;103.810;2023-04-19T08:40:53;31.40;99.90
31575;DHT22;18182;1.328;103.810;2023-04-19T08:43:20;31.40;99.90
31575;DHT22;18182;1.328;103.810;2023-04-19T08:45:46;31.40;99.90
31575;DHT22;18182;1.328;103.810;2023-04-19T08:48:14;31.40;99.90
31575;DHT22;18182;1.328;103.810;2023-04-19T08:50:40;31.40;99.90
31575;DHT22;18182;1.328;103.810;2023-04-19T08:53:07;31.40;99.90
31575;DHT22;18182;1.328;103.810;2023-04-19T08:55:34;31.40;99.90
31575;DHT22;18182;1.328;103.810;2023-04-19T08:58:02;31.40;99.90
31575;DHT22;18182;1.328;103.810;2023-04-19T09:00:28;31.40;99.90
31575;DHT22;18182;1.328;103.810;2023-04-19T09:02:55;31.40;99.90
31575;DHT22;18182;1.328;103.810;2023-04-19T09:05:21;31.40;99.90
31575;DHT22;18182;1.328;103.810;2023-04-19T09:07:47;31.40;99.90
31575;DHT22;18182;1.328;103.810;2023-04-19T09:10:17;31.30;99.90
31575;DHT22;18182;1.328;103.810;2023-04-19T09:13:05;31.30;99.90
31575;DHT22;18182;1.328;103.810;2023-04-19T09:15:39;31.40;99.90
31575;DHT22;18182;1.328;103.810;2023-04-19T09:18:07;31.40;99.90
31575;DHT22;18182;1.328;103.810;2023-04-19T09:20:35;31.40;99.90
31575;DHT22;18182;1.328;103.810;2023-04-19T09:23:05;31.30;99.90
31575;DHT22;18182;1.328;103.810;2023-04-19T09:25:32;31.20;99.90
31575;DHT22;18182;1.328;103.810;2023-04-19T09:28:08;31.20;99.90
31575;DHT22;18182;1.328;103.810;2023-04-19T09:30:35;31.30;99.90
31575;DHT22;18182;1.328;103.810;2023-04-19T09:33:01;31.30;99.90
31575;DHT22;18182;1.328;103.810;2023-04-19T09:35:43;31.30;99.90
31575;DHT22;18182;1.328;103.810;2023-04-19T09:38:10;31.40;99.90
31575;DHT22;18182;1.328;103.810;2023-04-19T09:40:37;31.40;99.90
31575;DHT22;18182;1.328;103.810;2023-04-19T09:43:03;31.40;99.90
31575;DHT22;18182;1.328;103.810;2023-04-19T09:45:43;31.40;99.90
31575;DHT22;18182;1.328;103.810;2023-04-19T09:48:09;31.30;99.90
31575;DHT22;18182;1.328;103.810;2023-04-19T09:50:36;31.30;99.90
31575;DHT22;18182;1.328;103.810;2023-04-19T09:53:16;31.30;99.90
31575;DHT22;18182;1.328;103.810;2023-04-19T09:55:43;31.30;99.90
31575;DHT22;18182;1.328;103.810;2023-04-19T09:58:09;31.30;99.90
31575;DHT22;18182;1.328;103.810;2023-04-19T10:00:35;31.30;99.90
31575;DHT22;18182;1.328;103.810;2023-04-19T10:03:01;31.30;99.90
31575;DHT22;18182;1.328;103.810;2023-04-19T10:05:28;31.20;99.90
31575;DHT22;18182;1.328;103.810;2023-04-19T10:07:55;31.20;99.90
31575;DHT22;18182;1.328;103.810;2023-04-19T10:10:24;31.20;99.90
31575;DHT22;18182;1.328;103.810;2023-04-19T10:12:51;31.20;99.90
31575;DHT22;18182;1.328;103.810;2023-04-19T10:15:19;31.20;99.90
31575;DHT22;18182;1.328;103.810;2023-04-19T10:17:46;31.30;99.90
31575;DHT22;18182;1.328;103.810;2023-04-19T10:20:16;31.20;99.90
31575;DHT22;18182;1.328;103.810;2023-04-19T10:22:43;31.20;99.90
31575;DHT22;18182;1.328;103.810;2023-04-19T10:25:13;31.20;99.90
31575;DHT22;18182;1.328;103.810;2023-04-19T10:27:40;31.20;99.90
31575;DHT22;18182;1.328;103.810;2023-04-19T10:30:20;31.30;99.90
31575;DHT22;18182;1.328;103.810;2023-04-19T10:32:56;31.20;99.90
31575;DHT22;18182;1.328;103.810;2023-04-19T10:43:28;31.20;99.90
31575;DHT22;18182;1.328;103.810;2023-04-19T10:45:58;31.20;99.90
31575;DHT22;18182;1.328;103.810;2023-04-19T10:51:01;31.20;99.90
31575;DHT22;18182;1.328;103.810;2023-04-19T10:56:10;31.10;99.90
31575;DHT22;18182;1.328;103.810;2023-04-19T11:01:33;31.00;99.90
31575;DHT22;18182;1.328;103.810;2023-04-19T11:04:01;31.00;99.90
31575;DHT22;18182;1.328;103.810;2023-04-19T11:06:27;31.00;99.90
31575;DHT22;18182;1.328;103.810;2023-04-19T11:08:54;30.90;99.90
31575;DHT22;18182;1.328;103.810;2023-04-19T11:11:20;30.90;99.90
31575;DHT22;18182;1.328;103.810;2023-04-19T11:13:46;30.90;99.90
31575;DHT22;18182;1.328;103.810;2023-04-19T11:16:13;30.90;99.90
31575;DHT22;18182;1.328;103.810;2023-04-19T11:18:39;30.90;99.90
31575;DHT22;18182;1.328;103.810;2023-04-19T11:21:05;30.90;99.90
31575;DHT22;18182;1.328;103.810;2023-04-19T11:23:31;30.90;99.90
31575;DHT22;18182;1.328;103.810;2023-04-19T11:25:57;30.90;99.90
31575;DHT22;18182;1.328;103.810;2023-04-19T11:28:23;30.90;99.90
31575;DHT22;18182;1.328;103.810;2023-04-19T11:30:50;30.90;99.90
31575;DHT22;18182;1.328;103.810;2023-04-19T11:33:18;30.80;99.90
31575;DHT22;18182;1.328;103.810;2023-04-19T11:35:50;30.80;99.90
31575;DHT22;18182;1.328;103.810;2023-04-19T11:38:19;30.70;99.90
31575;DHT22;18182;1.328;103.810;2023-04-19T11:40:45;30.70;99.90
31575;DHT22;18182;1.328;103.810;2023-04-19T11:43:11;30.70;99.90
31575;DHT22;18182;1.328;103.810;2023-04-19T11:45:47;30.70;99.90
31575;DHT22;18182;1.328;103.810;2023-04-19T11:48:14;30.80;99.90
31575;DHT22;18182;1.328;103.810;2023-04-19T11:50:41;30.80;99.90
31575;DHT22;18182;1.328;103.810;2023-04-19T11:53:17;30.80;99.90
31575;DHT22;18182;1.328;103.810;2023-04-19T11:55:50;30.80;99.90
31575;DHT22;18182;1.328;103.810;2023-04-19T12:00:57;30.70;99.90
31575;DHT22;18182;1.328;103.810;2023-04-19T12:03:27;30.70;99.90
31575;DHT22;18182;1.328;103.810;2023-04-19T12:05:53;30.70;99.90
31575;DHT22;18182;1.328;103.810;2023-04-19T12:08:30;30.80;99.90
31575;DHT22;18182;1.328;103.810;2023-04-19T12:10:57;30.80;99.90
31575;DHT22;18182;1.328;103.810;2023-04-19T12:13:23;30.80;99.90
31575;DHT22;18182;1.328;103.810;2023-04-19T12:15:50;30.70;99.90
31575;DHT22;18182;1.328;103.810;2023-04-19T12:18:16;30.80;99.90
31575;DHT22;18182;1.328;103.810;2023-04-19T12:20:46;30.80;99.90
31575;DHT22;18182;1.328;103.810;2023-04-19T12:23:12;30.80;99.90
31575;DHT22;18182;1.328;103.810;2023-04-19T12:25:40;30.80;99.90
31575;DHT22;18182;1.328;103.810;2023-04-19T12:28:06;30.80;99.90
31575;DHT22;18182;1.328;103.810;2023-04-19T12:30:34;30.80;99.90
31575;DHT22;18182;1.328;103.810;2023-04-19T12:33:01;30.80;99.90
31575;DHT22;18182;1.328;103.810;2023-04-19T12:35:27;30.80;99.90
31575;DHT22;18182;1.328;103.810;2023-04-19T12:37:54;30.80;99.90
31575;DHT22;18182;1.328;103.810;2023-04-19T12:40:20;30.70;99.90
31575;DHT22;18182;1.328;103.810;2023-04-19T12:42:47;30.70;99.90
31575;DHT22;18182;1.328;103.810;2023-04-19T12:45:13;30.70;99.90
31575;DHT22;18182;1.328;103.810;2023-04-19T12:47:39;30.70;99.90
31575;DHT22;18182;1.328;103.810;2023-04-19T12:50:06;30.70;99.90
31575;DHT22;18182;1.328;103.810;2023-04-19T12:52:33;30.70;99.90
31575;DHT22;18182;1.328;103.810;2023-04-19T12:54:59;30.60;99.90
31575;DHT22;18182;1.328;103.810;2023-04-19T12:57:25;30.60;99.90
31575;DHT22;18182;1.328;103.810;2023-04-19T12:59:51;30.60;99.90
31575;DHT22;18182;1.328;103.810;2023-04-19T13:02:17;30.60;99.90
31575;DHT22;18182;1.328;103.810;2023-04-19T13:04:43;30.60;99.90
31575;DHT22;18182;1.328;103.810;2023-04-19T13:07:10;30.50;99.90
31575;DHT22;18182;1.328;103.810;2023-04-19T13:09:36;30.50;99.90
31575;DHT22;18182;1.328;103.810;2023-04-19T13:12:03;30.50;99.90
31575;DHT22;18182;1.328;103.810;2023-04-19T13:14:29;30.50;99.90
31575;DHT22;18182;1.328;103.810;2023-04-19T13:16:56;30.50;99.90
31575;DHT22;18182;1.328;103.810;2023-04-19T13:19:22;30.50;99.90
31575;DHT22;18182;1.328;103.810;2023-04-19T13:21:48;30.50;99.90
31575;DHT22;18182;1.328;103.810;2023-04-19T13:24:14;30.50;99.90
31575;DHT22;18182;1.328;103.810;2023-04-19T13:26:40;30.50;99.90
31575;DHT22;18182;1.328;103.810;2023-04-19T13:29:06;30.50;99.90
31575;DHT22;18182;1.328;103.810;2023-04-19T13:31:35;30.50;99.90
31575;DHT22;18182;1.328;103.810;2023-04-19T13:34:01;30.50;99.90
31575;DHT22;18182;1.328;103.810;2023-04-19T13:36:27;30.50;99.90
31575;DHT22;18182;1.328;103.810;2023-04-19T13:38:54;30.50;99.90
31575;DHT22;18182;1.328;103.810;2023-04-19T13:41:20;30.50;99.90
31575;DHT22;18182;1.328;103.810;2023-04-19T13:43:46;30.60;99.90
31575;DHT22;18182;1.328;103.810;2023-04-19T13:46:12;30.60;99.90
31575;DHT22;18182;1.328;103.810;2023-04-19T13:48:38;30.60;99.90
31575;DHT22;18182;1.328;103.810;2023-04-19T13:51:05;30.50;99.90
31575;DHT22;18182;1.328;103.810;2023-04-19T13:53:31;30.50;99.90
31575;DHT22;18182;1.328;103.810;2023-04-19T13:55:58;30.50;99.90
31575;DHT22;18182;1.328;103.810;2023-04-19T13:58:24;30.50;99.90
31575;DHT22;18182;1.328;103.810;2023-04-19T14:00:50;30.40;99.90
31575;DHT22;18182;1.328;103.810;2023-04-19T14:03:17;30.40;99.90
31575;DHT22;18182;1.328;103.810;2023-04-19T14:05:43;30.40;99.90
31575;DHT22;18182;1.328;103.810;2023-04-19T14:08:09;30.40;99.90
31575;DHT22;18182;1.328;103.810;2023-04-19T14:10:35;30.40;99.90
31575;DHT22;18182;1.328;103.810;2023-04-19T14:13:02;30.40;99.90
31575;DHT22;18182;1.328;103.810;2023-04-19T14:15:28;30.40;99.90
31575;DHT22;18182;1.328;103.810;2023-04-19T14:17:54;30.40;99.90
31575;DHT22;18182;1.328;103.810;2023-04-19T14:20:21;30.50;99.90
31575;DHT22;18182;1.328;103.810;2023-04-19T14:22:47;30.40;99.90
31575;DHT22;18182;1.328;103.810;2023-04-19T14:25:13;30.50;99.90
31575;DHT22;18182;1.328;103.810;2023-04-19T14:27:45;30.50;99.90
31575;DHT22;18182;1.328;103.810;2023-04-19T14:30:11;30.50;99.90
31575;DHT22;18182;1.328;103.810;2023-04-19T14:32:37;30.50;99.90
31575;DHT22;18182;1.328;103.810;2023-04-19T14:35:03;30.50;99.90
31575;DHT22;18182;1.328;103.810;2023-04-19T14:37:30;30.50;99.90
31575;DHT22;18182;1.328;103.810;2023-04-19T14:39:56;30.40;99.90
31575;DHT22;18182;1.328;103.810;2023-04-19T14:42:22;30.40;99.90
31575;DHT22;18182;1.328;103.810;2023-04-19T14:44:50;30.40;99.90
31575;DHT22;18182;1.328;103.810;2023-04-19T14:47:16;30.30;99.90
31575;DHT22;18182;1.328;103.810;2023-04-19T14:49:42;30.30;99.90
31575;DHT22;18182;1.328;103.810;2023-04-19T14:52:09;30.30;99.90
31575;DHT22;18182;1.328;103.810;2023-04-19T14:54:35;30.30;99.90
31575;DHT22;18182;1.328;103.810;2023-04-19T14:57:01;30.40;99.90
31575;DHT22;18182;1.328;103.810;2023-04-19T14:59:28;30.40;99.90
31575;DHT22;18182;1.328;103.810;2023-04-19T15:01:54;30.40;99.90
31575;DHT22;18182;1.328;103.810;2023-04-19T15:04:20;30.40;99.90
31575;DHT22;18182;1.328;103.810;2023-04-19T15:06:46;30.40;99.90
31575;DHT22;18182;1.328;103.810;2023-04-19T15:09:13;30.40;99.90
31575;DHT22;18182;1.328;103.810;2023-04-19T15:11:39;30.40;99.90
31575;DHT22;18182;1.328;103.810;2023-04-19T15:14:05;30.40;99.90
31575;DHT22;18182;1.328;103.810;2023-04-19T15:16:32;30.40;99.90
31575;DHT22;18182;1.328;103.810;2023-04-19T15:18:58;30.40;99.90
31575;DHT22;18182;1.328;103.810;2023-04-19T15:21:24;30.40;99.90
31575;DHT22;18182;1.328;103.810;2023-04-19T15:23:50;30.40;99.90
31575;DHT22;18182;1.328;103.810;2023-04-19T15:26:17;30.40;99.90
31575;DHT22;18182;1.328;103.810;2023-04-19T15:28:43;30.30;99.90
31575;DHT22;18182;1.328;103.810;2023-04-19T15:31:12;30.30;99.90